sensor_id;sensor_type;location;lat;lon;timestamp;pressure;altitude;pressure_sealevel;temperature
67515;BMP280;60646;55.802;37.032;2023-03-09T00:00:03;97575.41;;;3.71
67515;BMP280;60646;55.802;37.032;2023-03-09T00:02:37;97589.06;;;3.75
67515;BMP280;60646;55.802;37.032;2023-03-09T00:05:22;97575.66;;;3.67
67515;BMP280;60646;55.802;37.032;2023-03-09T00:07:48;97571.56;;;3.61
67515;BMP280;60646;55.802;37.032;2023-03-09T00:10:15;97606.56;;;3.78
67515;BMP280;60646;55.802;37.032;2023-03-09T00:12:41;97612.31;;;3.82
67515;BMP280;60646;55.802;37.032;2023-03-09T00:15:08;97614.03;;;3.80
67515;BMP280;60646;55.802;37.032;2023-03-09T00:17:35;97590.97;;;3.63
67515;BMP280;60646;55.802;37.032;2023-03-09T00:20:02;97597.47;;;3.68
67515;BMP280;60646;55.802;37.032;2023-03-09T00:22:43;97599.16;;;3.71
67515;BMP280;60646;55.802;37.032;2023-03-09T00:25:09;97601.06;;;3.76
67515;BMP280;60646;55.802;37.032;2023-03-09T00:27:40;97596.53;;;3.71
67515;BMP280;60646;55.802;37.032;2023-03-09T00:30:08;97604.19;;;3.80
67515;BMP280;60646;55.802;37.032;2023-03-09T00:32:34;97591.25;;;3.71
67515;BMP280;60646;55.802;37.032;2023-03-09T00:35:00;97588.81;;;3.79
67515;BMP280;60646;55.802;37.032;2023-03-09T00:37:26;97588.81;;;3.73
67515;BMP280;60646;55.802;37.032;2023-03-09T00:39:51;97601.06;;;3.82
67515;BMP280;60646;55.802;37.032;2023-03-09T00:42:17;97574.19;;;3.72
67515;BMP280;60646;55.802;37.032;2023-03-09T00:44:43;97600.13;;;3.90
67515;BMP280;60646;55.802;37.032;2023-03-09T00:47:08;97590.75;;;3.89
67515;BMP280;60646;55.802;37.032;2023-03-09T00:49:34;97564.84;;;3.77
67515;BMP280;60646;55.802;37.032;2023-03-09T00:52:00;97594.34;;;3.92
67515;BMP280;60646;55.802;37.032;2023-03-09T00:54:26;97577.31;;;3.87
67515;BMP280;60646;55.802;37.032;2023-03-09T00:56:51;97584.03;;;3.88
67515;BMP280;60646;55.802;37.032;2023-03-09T00:59:17;97586.91;;;3.90
67515;BMP280;60646;55.802;37.032;2023-03-09T01:01:43;97579.22;;;3.81
67515;BMP280;60646;55.802;37.032;2023-03-09T01:04:09;97588.34;;;3.91
67515;BMP280;60646;55.802;37.032;2023-03-09T01:06:35;97578.50;;;3.81
67515;BMP280;60646;55.802;37.032;2023-03-09T01:09:20;97577.78;;;3.80
67515;BMP280;60646;55.802;37.032;2023-03-09T01:11:46;97598.66;;;3.95
67515;BMP280;60646;55.802;37.032;2023-03-09T01:14:11;97579.72;;;3.85
67515;BMP280;60646;55.802;37.032;2023-03-09T01:16:37;97597.47;;;3.85
67515;BMP280;60646;55.802;37.032;2023-03-09T01:19:03;97593.63;;;3.80
67515;BMP280;60646;55.802;37.032;2023-03-09T01:21:29;97604.19;;;3.86
67515;BMP280;60646;55.802;37.032;2023-03-09T01:23:54;97592.19;;;3.79
67515;BMP280;60646;55.802;37.032;2023-03-09T01:26:20;97587.63;;;3.74
67515;BMP280;60646;55.802;37.032;2023-03-09T01:29:05;97582.34;;;3.68
67515;BMP280;60646;55.802;37.032;2023-03-09T01:31:31;97595.53;;;3.74
67515;BMP280;60646;55.802;37.032;2023-03-09T01:33:57;97600.81;;;3.74
67515;BMP280;60646;55.802;37.032;2023-03-09T01:36:22;97579.22;;;3.59
67515;BMP280;60646;55.802;37.032;2023-03-09T01:38:49;97599.41;;;3.67
67515;BMP280;60646;55.802;37.032;2023-03-09T01:41:16;97610.16;;;3.75
67515;BMP280;60646;55.802;37.032;2023-03-09T01:43:47;97615.19;;;3.73
67515;BMP280;60646;55.802;37.032;2023-03-09T01:48:53;97592.63;;;3.50
67515;BMP280;60646;55.802;37.032;2023-03-09T01:51:21;97610.41;;;3.55
67515;BMP280;60646;55.802;37.032;2023-03-09T01:53:50;97615.66;;;3.55
67515;BMP280;60646;55.802;37.032;2023-03-09T01:56:17;97612.53;;;3.51
67515;BMP280;60646;55.802;37.032;2023-03-09T01:58:45;97610.41;;;3.44
67515;BMP280;60646;55.802;37.032;2023-03-09T02:01:14;97618.56;;;3.46
67515;BMP280;60646;55.802;37.032;2023-03-09T02:03:44;97635.59;;;3.56
67515;BMP280;60646;55.802;37.032;2023-03-09T02:06:18;97614.94;;;3.38
67515;BMP280;60646;55.802;37.032;2023-03-09T02:11:46;97614.91;;;3.32
67515;BMP280;60646;55.802;37.032;2023-03-09T02:14:13;97622.38;;;3.34
67515;BMP280;60646;55.802;37.032;2023-03-09T02:16:39;97623.75;;;3.23
67515;BMP280;60646;55.802;37.032;2023-03-09T02:19:20;97640.34;;;3.30
67515;BMP280;60646;55.802;37.032;2023-03-09T02:21:51;97634.09;;;3.21
67515;BMP280;60646;55.802;37.032;2023-03-09T02:24:29;97620.63;;;3.14
67515;BMP280;60646;55.802;37.032;2023-03-09T02:27:24;97660.03;;;3.34
67515;BMP280;60646;55.802;37.032;2023-03-09T02:29:51;97642.94;;;3.18
67515;BMP280;60646;55.802;37.032;2023-03-09T02:32:19;97662.16;;;3.30
67515;BMP280;60646;55.802;37.032;2023-03-09T02:34:45;97643.66;;;3.13
67515;BMP280;60646;55.802;37.032;2023-03-09T02:39:57;97664.50;;;3.22
67515;BMP280;60646;55.802;37.032;2023-03-09T02:42:24;97659.00;;;3.15
67515;BMP280;60646;55.802;37.032;2023-03-09T02:44:50;97657.78;;;3.10
67515;BMP280;60646;55.802;37.032;2023-03-09T02:47:20;97656.81;;;3.13
67515;BMP280;60646;55.802;37.032;2023-03-09T02:49:49;97642.84;;;2.96
67515;BMP280;60646;55.802;37.032;2023-03-09T02:52:16;97660.41;;;3.10
67515;BMP280;60646;55.802;37.032;2023-03-09T02:54:42;97645.25;;;3.00
67515;BMP280;60646;55.802;37.032;2023-03-09T02:57:09;97674.09;;;3.14
67515;BMP280;60646;55.802;37.032;2023-03-09T02:59:35;97661.56;;;2.98
67515;BMP280;60646;55.802;37.032;2023-03-09T03:02:01;97678.88;;;3.10
67515;BMP280;60646;55.802;37.032;2023-03-09T03:04:29;97670.66;;;2.97
67515;BMP280;60646;55.802;37.032;2023-03-09T03:06:55;97681.72;;;3.01
67515;BMP280;60646;55.802;37.032;2023-03-09T03:09:21;97667.53;;;2.93
67515;BMP280;60646;55.802;37.032;2023-03-09T03:11:47;97675.44;;;2.93
67515;BMP280;60646;55.802;37.032;2023-03-09T03:14:12;97682.66;;;2.98
67515;BMP280;60646;55.802;37.032;2023-03-09T03:16:38;97685.53;;;2.95
67515;BMP280;60646;55.802;37.032;2023-03-09T03:19:04;97659.53;;;2.71
67515;BMP280;60646;55.802;37.032;2023-03-09T03:21:34;97649.00;;;2.71
67515;BMP280;60646;55.802;37.032;2023-03-09T03:24:19;97667.72;;;2.78
67515;BMP280;60646;55.802;37.032;2023-03-09T03:26:45;97659.53;;;2.71
67515;BMP280;60646;55.802;37.032;2023-03-09T03:29:14;97676.06;;;2.77
67515;BMP280;60646;55.802;37.032;2023-03-09T03:31:40;97678.25;;;2.78
67515;BMP280;60646;55.802;37.032;2023-03-09T03:34:06;97682.34;;;2.80
67515;BMP280;60646;55.802;37.032;2023-03-09T03:36:37;97672.19;;;2.67
67515;BMP280;60646;55.802;37.032;2023-03-09T03:39:04;97686.13;;;2.73
67515;BMP280;60646;55.802;37.032;2023-03-09T03:41:31;97696.66;;;2.73
67515;BMP280;60646;55.802;37.032;2023-03-09T03:44:00;97677.69;;;2.58
67515;BMP280;60646;55.802;37.032;2023-03-09T03:46:26;97685.81;;;2.60
67515;BMP280;60646;55.802;37.032;2023-03-09T03:48:52;97686.09;;;2.62
67515;BMP280;60646;55.802;37.032;2023-03-09T03:51:19;97664.16;;;2.45
67515;BMP280;60646;55.802;37.032;2023-03-09T03:53:48;97683.84;;;2.55
67515;BMP280;60646;55.802;37.032;2023-03-09T03:56:14;97684.56;;;2.50
67515;BMP280;60646;55.802;37.032;2023-03-09T03:58:42;97678.53;;;2.44
67515;BMP280;60646;55.802;37.032;2023-03-09T04:01:08;97691.03;;;2.49
67515;BMP280;60646;55.802;37.032;2023-03-09T04:03:34;97693.66;;;2.49
67515;BMP280;60646;55.802;37.032;2023-03-09T04:06:02;97698.66;;;2.47
67515;BMP280;60646;55.802;37.032;2023-03-09T04:08:29;97705.88;;;2.52
67515;BMP280;60646;55.802;37.032;2023-03-09T04:10:55;97682.97;;;2.32
67515;BMP280;60646;55.802;37.032;2023-03-09T04:13:21;97700.06;;;2.42
67515;BMP280;60646;55.802;37.032;2023-03-09T04:15:47;97696.41;;;2.34
67515;BMP280;60646;55.802;37.032;2023-03-09T04:18:14;97717.34;;;2.49
67515;BMP280;60646;55.802;37.032;2023-03-09T04:20:41;97720.44;;;2.47
67515;BMP280;60646;55.802;37.032;2023-03-09T04:23:10;97701.88;;;2.30
67515;BMP280;60646;55.802;37.032;2023-03-09T04:25:38;97711.97;;;2.38
67515;BMP280;60646;55.802;37.032;2023-03-09T04:28:04;97708.09;;;2.27
67515;BMP280;60646;55.802;37.032;2023-03-09T04:30:37;97740.28;;;2.43
67515;BMP280;60646;55.802;37.032;2023-03-09T04:33:08;97708.25;;;2.18
67515;BMP280;60646;55.802;37.032;2023-03-09T04:35:36;97720.06;;;2.28
67515;BMP280;60646;55.802;37.032;2023-03-09T04:38:07;97708.25;;;2.18
67515;BMP280;60646;55.802;37.032;2023-03-09T04:40:36;97727.22;;;2.22
67515;BMP280;60646;55.802;37.032;2023-03-09T04:43:20;97719.06;;;2.20
67515;BMP280;60646;55.802;37.032;2023-03-09T04:45:47;97727.72;;;2.26
67515;BMP280;60646;55.802;37.032;2023-03-09T04:48:14;97752.66;;;2.37
67515;BMP280;60646;55.802;37.032;2023-03-09T04:50:40;97710.78;;;2.07
67515;BMP280;60646;55.802;37.032;2023-03-09T04:53:06;97723.53;;;2.14
67515;BMP280;60646;55.802;37.032;2023-03-09T04:55:34;97740.13;;;2.20
67515;BMP280;60646;55.802;37.032;2023-03-09T04:58:03;97748.06;;;2.26
67515;BMP280;60646;55.802;37.032;2023-03-09T05:00:30;97763.22;;;2.37
67515;BMP280;60646;55.802;37.032;2023-03-09T05:02:58;97739.16;;;2.18
67515;BMP280;60646;55.802;37.032;2023-03-09T05:05:24;97769.94;;;2.38
67515;BMP280;60646;55.802;37.032;2023-03-09T05:07:53;97752.34;;;2.23
67515;BMP280;60646;55.802;37.032;2023-03-09T05:10:19;97742.47;;;2.18
67515;BMP280;60646;55.802;37.032;2023-03-09T05:12:47;97746.91;;;2.27
67515;BMP280;60646;55.802;37.032;2023-03-09T05:15:18;97740.13;;;2.20
67515;BMP280;60646;55.802;37.032;2023-03-09T05:17:43;97760.78;;;2.33
67515;BMP280;60646;55.802;37.032;2023-03-09T05:20:11;97759.09;;;2.30
67515;BMP280;60646;55.802;37.032;2023-03-09T05:22:42;97744.19;;;2.21
67515;BMP280;60646;55.802;37.032;2023-03-09T05:25:10;97751.16;;;2.24
67515;BMP280;60646;55.802;37.032;2023-03-09T05:27:37;97739.59;;;2.16
67515;BMP280;60646;55.802;37.032;2023-03-09T05:30:05;97747.56;;;2.22
67515;BMP280;60646;55.802;37.032;2023-03-09T05:32:33;97750.66;;;2.20
67515;BMP280;60646;55.802;37.032;2023-03-09T05:34:59;97747.06;;;2.23
67515;BMP280;60646;55.802;37.032;2023-03-09T05:37:26;97735.06;;;2.17
67515;BMP280;60646;55.802;37.032;2023-03-09T05:39:54;97770.19;;;2.40
67515;BMP280;60646;55.802;37.032;2023-03-09T05:42:20;97765.09;;;2.30
67515;BMP280;60646;55.802;37.032;2023-03-09T05:44:46;97772.84;;;2.40
67515;BMP280;60646;55.802;37.032;2023-03-09T05:47:12;97755.50;;;2.27
67515;BMP280;60646;55.802;37.032;2023-03-09T05:49:37;97746.31;;;2.17
67515;BMP280;60646;55.802;37.032;2023-03-09T05:52:03;97775.72;;;2.42
67515;BMP280;60646;55.802;37.032;2023-03-09T05:54:31;97765.59;;;2.35
67515;BMP280;60646;55.802;37.032;2023-03-09T05:57:01;97794.50;;;2.55
67515;BMP280;60646;55.802;37.032;2023-03-09T05:59:27;97786.09;;;2.51
67515;BMP280;60646;55.802;37.032;2023-03-09T06:01:53;97775.72;;;2.42
67515;BMP280;60646;55.802;37.032;2023-03-09T06:04:23;97798.84;;;2.58
67515;BMP280;60646;55.802;37.032;2023-03-09T06:06:52;97805.63;;;2.70
67515;BMP280;60646;55.802;37.032;2023-03-09T06:09:22;97794.81;;;2.62
67515;BMP280;60646;55.802;37.032;2023-03-09T06:11:48;97785.50;;;2.67
67515;BMP280;60646;55.802;37.032;2023-03-09T06:14:14;97801.91;;;2.82
67515;BMP280;60646;55.802;37.032;2023-03-09T06:16:42;97785.53;;;2.72
67515;BMP280;60646;55.802;37.032;2023-03-09T06:19:09;97829.63;;;3.03
67515;BMP280;60646;55.802;37.032;2023-03-09T06:21:35;97789.19;;;2.81
67515;BMP280;60646;55.802;37.032;2023-03-09T06:24:02;97813.28;;;2.99
67515;BMP280;60646;55.802;37.032;2023-03-09T06:26:28;97807.56;;;3.06
67515;BMP280;60646;55.802;37.032;2023-03-09T06:29:01;97836.97;;;3.31
67515;BMP280;60646;55.802;37.032;2023-03-09T06:31:26;97821.34;;;3.21
67515;BMP280;60646;55.802;37.032;2023-03-09T06:33:56;97796.09;;;3.09
67515;BMP280;60646;55.802;37.032;2023-03-09T06:36:23;97823.00;;;3.24
67515;BMP280;60646;55.802;37.032;2023-03-09T06:38:51;97845.22;;;3.49
67515;BMP280;60646;55.802;37.032;2023-03-09T06:41:20;97834.41;;;3.47
67515;BMP280;60646;55.802;37.032;2023-03-09T06:44:00;97817.34;;;3.37
67515;BMP280;60646;55.802;37.032;2023-03-09T06:46:26;97824.34;;;3.40
67515;BMP280;60646;55.802;37.032;2023-03-09T06:48:52;97820.00;;;3.43
67515;BMP280;60646;55.802;37.032;2023-03-09T06:51:18;97827.72;;;3.52
67515;BMP280;60646;55.802;37.032;2023-03-09T06:53:44;97825.59;;;3.56
67515;BMP280;60646;55.802;37.032;2023-03-09T06:56:14;97847.47;;;3.73
67515;BMP280;60646;55.802;37.032;2023-03-09T06:58:40;97867.72;;;3.87
67515;BMP280;60646;55.802;37.032;2023-03-09T07:01:07;97852.31;;;3.80
67515;BMP280;60646;55.802;37.032;2023-03-09T07:03:34;97867.47;;;3.96
67515;BMP280;60646;55.802;37.032;2023-03-09T07:06:00;97847.28;;;3.82
67515;BMP280;60646;55.802;37.032;2023-03-09T07:08:26;97857.19;;;3.98
67515;BMP280;60646;55.802;37.032;2023-03-09T07:10:52;97868.75;;;4.06
67515;BMP280;60646;55.802;37.032;2023-03-09T07:13:18;97863.72;;;4.14
67515;BMP280;60646;55.802;37.032;2023-03-09T07:15:44;97863.94;;;4.10
67515;BMP280;60646;55.802;37.032;2023-03-09T07:18:10;97861.06;;;4.19
67515;BMP280;60646;55.802;37.032;2023-03-09T07:20:40;97885.38;;;4.46
67515;BMP280;60646;55.802;37.032;2023-03-09T07:23:07;97875.31;;;4.44
67515;BMP280;60646;55.802;37.032;2023-03-09T07:25:52;97896.22;;;4.59
67515;BMP280;60646;55.802;37.032;2023-03-09T07:28:17;97857.03;;;4.46
67515;BMP280;60646;55.802;37.032;2023-03-09T07:30:43;97872.19;;;4.57
67515;BMP280;60646;55.802;37.032;2023-03-09T07:33:09;97868.59;;;4.65
67515;BMP280;60646;55.802;37.032;2023-03-09T07:35:38;97881.34;;;4.78
67515;BMP280;60646;55.802;37.032;2023-03-09T07:38:04;97864.53;;;4.70
67515;BMP280;60646;55.802;37.032;2023-03-09T07:40:30;97891.66;;;4.93
67515;BMP280;60646;55.802;37.032;2023-03-09T07:42:56;97887.59;;;4.97
67515;BMP280;60646;55.802;37.032;2023-03-09T07:45:44;97884.22;;;5.02
67515;BMP280;60646;55.802;37.032;2023-03-09T07:48:10;97877.00;;;4.97
67515;BMP280;60646;55.802;37.032;2023-03-09T07:50:37;97867.41;;;4.94
67515;BMP280;60646;55.802;37.032;2023-03-09T07:53:03;97881.81;;;5.04
67515;BMP280;60646;55.802;37.032;2023-03-09T07:55:29;97879.16;;;5.10
67515;BMP280;60646;55.802;37.032;2023-03-09T07:57:55;97862.34;;;5.02
67515;BMP280;60646;55.802;37.032;2023-03-09T08:00:21;97854.66;;;4.98
67515;BMP280;60646;55.802;37.032;2023-03-09T08:02:49;97870.00;;;5.11
67515;BMP280;60646;55.802;37.032;2023-03-09T08:05:15;97895.25;;;5.29
67515;BMP280;60646;55.802;37.032;2023-03-09T08:07:41;97891.88;;;5.28
67515;BMP280;60646;55.802;37.032;2023-03-09T08:10:08;97876.00;;;5.22
67515;BMP280;60646;55.802;37.032;2023-03-09T08:12:35;97896.63;;;5.41
67515;BMP280;60646;55.802;37.032;2023-03-09T08:15:01;97876.72;;;5.34
67515;BMP280;60646;55.802;37.032;2023-03-09T08:17:27;97902.66;;;5.52
67515;BMP280;60646;55.802;37.032;2023-03-09T08:19:53;97885.09;;;5.55
67515;BMP280;60646;55.802;37.032;2023-03-09T08:22:19;97867.78;;;5.43
67515;BMP280;60646;55.802;37.032;2023-03-09T08:24:45;97853.81;;;5.48
67515;BMP280;60646;55.802;37.032;2023-03-09T08:27:10;97867.97;;;5.61
67515;BMP280;60646;55.802;37.032;2023-03-09T08:29:36;97873.25;;;5.67
67515;BMP280;60646;55.802;37.032;2023-03-09T08:32:06;97869.63;;;5.70
67515;BMP280;60646;55.802;37.032;2023-03-09T08:34:32;97844.63;;;5.60
67515;BMP280;60646;55.802;37.032;2023-03-09T08:36:58;97869.56;;;5.81
67515;BMP280;60646;55.802;37.032;2023-03-09T08:39:24;97876.00;;;5.97
67515;BMP280;60646;55.802;37.032;2023-03-09T08:42:08;97854.59;;;5.89
67515;BMP280;60646;55.802;37.032;2023-03-09T08:44:34;97868.31;;;5.99
67515;BMP280;60646;55.802;37.032;2023-03-09T08:47:00;97871.63;;;6.05
67515;BMP280;60646;55.802;37.032;2023-03-09T08:49:26;97875.16;;;6.18
67515;BMP280;60646;55.802;37.032;2023-03-09T08:51:51;97863.59;;;6.16
67515;BMP280;60646;55.802;37.032;2023-03-09T08:54:17;97873.38;;;6.32
67515;BMP280;60646;55.802;37.032;2023-03-09T08:56:43;97858.19;;;6.33
67515;BMP280;60646;55.802;37.032;2023-03-09T08:59:11;97873.31;;;6.43
67515;BMP280;60646;55.802;37.032;2023-03-09T09:01:39;97865.09;;;6.47
67515;BMP280;60646;55.802;37.032;2023-03-09T09:04:05;97853.56;;;6.44
67515;BMP280;60646;55.802;37.032;2023-03-09T09:06:31;97847.53;;;6.44
67515;BMP280;60646;55.802;37.032;2023-03-09T09:08:56;97826.13;;;6.36
67515;BMP280;60646;55.802;37.032;2023-03-09T09:11:22;97854.88;;;6.62
67515;BMP280;60646;55.802;37.032;2023-03-09T09:13:48;97846.19;;;6.61
67515;BMP280;60646;55.802;37.032;2023-03-09T09:16:35;97843.53;;;6.61
67515;BMP280;60646;55.802;37.032;2023-03-09T09:19:01;97865.16;;;6.71
67515;BMP280;60646;55.802;37.032;2023-03-09T09:21:27;97848.28;;;6.68
67515;BMP280;60646;55.802;37.032;2023-03-09T09:23:53;97844.59;;;6.77
67515;BMP280;60646;55.802;37.032;2023-03-09T09:26:20;97847.66;;;6.81
67515;BMP280;60646;55.802;37.032;2023-03-09T09:28:46;97847.00;;;6.81
67515;BMP280;60646;55.802;37.032;2023-03-09T09:31:18;97845.50;;;6.85
67515;BMP280;60646;55.802;37.032;2023-03-09T09:33:47;97850.47;;;6.94
67515;BMP280;60646;55.802;37.032;2023-03-09T09:36:15;97838.00;;;6.89
67515;BMP280;60646;55.802;37.032;2023-03-09T09:38:42;97850.16;;;7.03
67515;BMP280;60646;55.802;37.032;2023-03-09T09:44:01;97848.66;;;7.08
67515;BMP280;60646;55.802;37.032;2023-03-09T09:46:29;97852.19;;;7.16
67515;BMP280;60646;55.802;37.032;2023-03-09T09:48:59;97854.06;;;7.21
67515;BMP280;60646;55.802;37.032;2023-03-09T09:54:32;97848.84;;;7.34
67515;BMP280;60646;55.802;37.032;2023-03-09T09:57:03;97862.22;;;7.47
67515;BMP280;60646;55.802;37.032;2023-03-09T10:02:18;97842.25;;;7.41
67515;BMP280;60646;55.802;37.032;2023-03-09T10:04:55;97839.53;;;7.46
67515;BMP280;60646;55.802;37.032;2023-03-09T10:07:23;97862.78;;;7.59
67515;BMP280;60646;55.802;37.032;2023-03-09T10:09:53;97842.91;;;7.47
67515;BMP280;60646;55.802;37.032;2023-03-09T10:12:20;97849.88;;;7.50
67515;BMP280;60646;55.802;37.032;2023-03-09T10:14:53;97860.59;;;7.63
67515;BMP280;60646;55.802;37.032;2023-03-09T10:17:38;97842.28;;;7.59
67515;BMP280;60646;55.802;37.032;2023-03-09T10:22:39;97837.25;;;7.56
67515;BMP280;60646;55.802;37.032;2023-03-09T10:25:11;97855.47;;;7.65
67515;BMP280;60646;55.802;37.032;2023-03-09T10:27:45;97834.19;;;7.52
67515;BMP280;60646;55.802;37.032;2023-03-09T10:30:21;97827.41;;;7.51
67515;BMP280;60646;55.802;37.032;2023-03-09T10:32:56;97825.41;;;7.38
67515;BMP280;60646;55.802;37.032;2023-03-09T10:35:34;97845.81;;;7.49
67515;BMP280;60646;55.802;37.032;2023-03-09T10:38:27;97837.38;;;7.45
67515;BMP280;60646;55.802;37.032;2023-03-09T10:40:57;97843.16;;;7.49
67515;BMP280;60646;55.802;37.032;2023-03-09T10:43:30;97843.56;;;7.53
67515;BMP280;60646;55.802;37.032;2023-03-09T10:46:19;97817.00;;;7.34
67515;BMP280;60646;55.802;37.032;2023-03-09T10:49:11;97836.16;;;7.46
67515;BMP280;60646;55.802;37.032;2023-03-09T10:51:44;97833.84;;;7.37
67515;BMP280;60646;55.802;37.032;2023-03-09T10:56:44;97845.84;;;7.43
67515;BMP280;60646;55.802;37.032;2023-03-09T10:59:16;97849.22;;;7.44
67515;BMP280;60646;55.802;37.032;2023-03-09T11:01:45;97826.03;;;7.25
67515;BMP280;60646;55.802;37.032;2023-03-09T11:07:02;97831.97;;;7.32
67515;BMP280;60646;55.802;37.032;2023-03-09T11:09:35;97838.72;;;7.33
67515;BMP280;60646;55.802;37.032;2023-03-09T11:14:55;97838.78;;;7.27
67515;BMP280;60646;55.802;37.032;2023-03-09T11:30:48;97837.72;;;7.17
67515;BMP280;60646;55.802;37.032;2023-03-09T11:33:18;97840.88;;;7.15
67515;BMP280;60646;55.802;37.032;2023-03-09T11:35:46;97823.13;;;7.05
67515;BMP280;60646;55.802;37.032;2023-03-09T11:38:15;97826.28;;;7.03
67515;BMP280;60646;55.802;37.032;2023-03-09T11:40:46;97834.59;;;7.13
67515;BMP280;60646;55.802;37.032;2023-03-09T11:43:23;97826.16;;;7.14
67515;BMP280;60646;55.802;37.032;2023-03-09T11:46:13;97808.72;;;6.95
67515;BMP280;60646;55.802;37.032;2023-03-09T11:48:44;97808.03;;;6.94
67515;BMP280;60646;55.802;37.032;2023-03-09T11:51:15;97828.59;;;7.12
67515;BMP280;60646;55.802;37.032;2023-03-09T11:54:05;97832.66;;;7.13
67515;BMP280;60646;55.802;37.032;2023-03-09T11:56:38;97802.66;;;7.00
67515;BMP280;60646;55.802;37.032;2023-03-09T12:01:47;97808.59;;;7.06
67515;BMP280;60646;55.802;37.032;2023-03-09T12:04:16;97826.88;;;7.15
67515;BMP280;60646;55.802;37.032;2023-03-09T12:12:45;97787.06;;;6.91
67515;BMP280;60646;55.802;37.032;2023-03-09T12:18:16;97794.75;;;6.94
67515;BMP280;60646;55.802;37.032;2023-03-09T12:21:15;97808.31;;;7.09
67515;BMP280;60646;55.802;37.032;2023-03-09T12:23:48;97794.31;;;6.90
67515;BMP280;60646;55.802;37.032;2023-03-09T12:26:33;97800.56;;;6.93
67515;BMP280;60646;55.802;37.032;2023-03-09T12:31:39;97811.25;;;7.06
67515;BMP280;60646;55.802;37.032;2023-03-09T12:34:23;97817.09;;;7.04
67515;BMP280;60646;55.802;37.032;2023-03-09T12:36:50;97791.19;;;6.86
67515;BMP280;60646;55.802;37.032;2023-03-09T12:42:24;97802.19;;;6.96
67515;BMP280;60646;55.802;37.032;2023-03-09T12:47:33;97810.78;;;7.07
67515;BMP280;60646;55.802;37.032;2023-03-09T12:50:00;97792.31;;;6.96
67515;BMP280;60646;55.802;37.032;2023-03-09T12:55:40;97769.84;;;6.79
67515;BMP280;60646;55.802;37.032;2023-03-09T13:03:25;97805.56;;;6.96
67515;BMP280;60646;55.802;37.032;2023-03-09T13:09:00;97810.47;;;6.92
67515;BMP280;60646;55.802;37.032;2023-03-09T13:14:02;97798.22;;;6.84
67515;BMP280;60646;55.802;37.032;2023-03-09T13:22:11;97816.75;;;6.89
67515;BMP280;60646;55.802;37.032;2023-03-09T13:24:41;97783.41;;;6.69
67515;BMP280;60646;55.802;37.032;2023-03-09T13:29:46;97801.81;;;6.86
67515;BMP280;60646;55.802;37.032;2023-03-09T13:34:46;97781.25;;;6.68
67515;BMP280;60646;55.802;37.032;2023-03-09T13:37:18;97805.91;;;6.87
67515;BMP280;60646;55.802;37.032;2023-03-09T13:40:03;97781.97;;;6.68
67515;BMP280;60646;55.802;37.032;2023-03-09T13:42:32;97771.22;;;6.61
67515;BMP280;60646;55.802;37.032;2023-03-09T13:45:29;97795.09;;;6.85
67515;BMP280;60646;55.802;37.032;2023-03-09T13:48:01;97790.88;;;6.71
67515;BMP280;60646;55.802;37.032;2023-03-09T13:50:29;97803.28;;;6.82
67515;BMP280;60646;55.802;37.032;2023-03-09T13:53:01;97786.50;;;6.73
67515;BMP280;60646;55.802;37.032;2023-03-09T13:55:27;97783.13;;;6.73
67515;BMP280;60646;55.802;37.032;2023-03-09T13:57:53;97791.00;;;6.84
67515;BMP280;60646;55.802;37.032;2023-03-09T14:00:22;97781.69;;;6.72
67515;BMP280;60646;55.802;37.032;2023-03-09T14:02:52;97800.13;;;6.89
67515;BMP280;60646;55.802;37.032;2023-03-09T14:05:21;97798.22;;;6.84
67515;BMP280;60646;55.802;37.032;2023-03-09T14:07:55;97795.94;;;6.69
67515;BMP280;60646;55.802;37.032;2023-03-09T14:10:34;97807.88;;;6.81
67515;BMP280;60646;55.802;37.032;2023-03-09T14:13:16;97806.25;;;6.78
67515;BMP280;60646;55.802;37.032;2023-03-09T14:20:59;97784.31;;;6.53
67515;BMP280;60646;55.802;37.032;2023-03-09T14:23:41;97806.78;;;6.71
67515;BMP280;60646;55.802;37.032;2023-03-09T14:26:08;97794.84;;;6.59
67515;BMP280;60646;55.802;37.032;2023-03-09T14:28:40;97810.41;;;6.68
67515;BMP280;60646;55.802;37.032;2023-03-09T14:31:20;97807.75;;;6.68
67515;BMP280;60646;55.802;37.032;2023-03-09T14:34:05;97790.53;;;6.56
67515;BMP280;60646;55.802;37.032;2023-03-09T14:36:37;97791.09;;;6.49
67515;BMP280;60646;55.802;37.032;2023-03-09T14:39:18;97793.03;;;6.48
67515;BMP280;60646;55.802;37.032;2023-03-09T14:44:35;97793.81;;;6.38
67515;BMP280;60646;55.802;37.032;2023-03-09T14:47:01;97819.22;;;6.57
67515;BMP280;60646;55.802;37.032;2023-03-09T14:49:27;97810.13;;;6.47
67515;BMP280;60646;55.802;37.032;2023-03-09T14:51:53;97823.78;;;6.57
67515;BMP280;60646;55.802;37.032;2023-03-09T14:54:19;97806.38;;;6.37
67515;BMP280;60646;55.802;37.032;2023-03-09T14:56:46;97832.53;;;6.52
67515;BMP280;60646;55.802;37.032;2023-03-09T14:59:14;97825.88;;;6.40
67515;BMP280;60646;55.802;37.032;2023-03-09T15:01:43;97837.38;;;6.48
67515;BMP280;60646;55.802;37.032;2023-03-09T15:04:13;97842.50;;;6.40
67515;BMP280;60646;55.802;37.032;2023-03-09T15:06:39;97825.22;;;6.28
67515;BMP280;60646;55.802;37.032;2023-03-09T15:09:05;97826.69;;;6.23
67515;BMP280;60646;55.802;37.032;2023-03-09T15:11:32;97821.25;;;6.10
67515;BMP280;60646;55.802;37.032;2023-03-09T15:14:00;97823.66;;;6.08
67515;BMP280;60646;55.802;37.032;2023-03-09T15:16:28;97837.59;;;6.14
67515;BMP280;60646;55.802;37.032;2023-03-09T15:18:54;97836.44;;;6.04
67515;BMP280;60646;55.802;37.032;2023-03-09T15:21:21;97843.19;;;6.05
67515;BMP280;60646;55.802;37.032;2023-03-09T15:23:47;97828.13;;;5.89
67515;BMP280;60646;55.802;37.032;2023-03-09T15:26:13;97838.94;;;5.91
67515;BMP280;60646;55.802;37.032;2023-03-09T15:28:38;97848.78;;;5.96
67515;BMP280;60646;55.802;37.032;2023-03-09T15:31:09;97840.69;;;5.83
67515;BMP280;60646;55.802;37.032;2023-03-09T15:33:37;97834.19;;;5.73
67515;BMP280;60646;55.802;37.032;2023-03-09T15:36:07;97835.69;;;5.68
67515;BMP280;60646;55.802;37.032;2023-03-09T15:38:33;97864.28;;;5.81
67515;BMP280;60646;55.802;37.032;2023-03-09T15:40:59;97844.63;;;5.60
67515;BMP280;60646;55.802;37.032;2023-03-09T15:43:25;97854.22;;;5.63
67515;BMP280;60646;55.802;37.032;2023-03-09T15:45:51;97845.59;;;5.57
67515;BMP280;60646;55.802;37.032;2023-03-09T15:48:16;97863.41;;;5.62
67515;BMP280;60646;55.802;37.032;2023-03-09T15:50:52;97862.91;;;5.63
67515;BMP280;60646;55.802;37.032;2023-03-09T15:53:17;97856.94;;;5.52